createdAt,value
2019-01-21T00:00:46.390Z,100867.86
2019-01-21T00:01:44.509Z,100873.52
2019-01-21T00:02:22.211Z,100870.84
2019-01-21T00:02:59.058Z,100872.98
2019-01-21T00:03:35.355Z,100874.34
2019-01-21T00:04:11.896Z,100872.73
2019-01-21T00:04:48.927Z,100873.80
2019-01-21T00:05:25.193Z,100876.20
2019-01-21T00:06:01.892Z,100878.38
2019-01-21T00:06:38.150Z,100875.13
2019-01-21T00:07:16.287Z,100878.34
2019-01-21T00:07:53.536Z,100888.56
2019-01-21T00:08:30.732Z,100887.23
2019-01-21T00:09:09.354Z,100881.55
2019-01-21T00:09:45.637Z,100886.92
2019-01-21T00:10:22.671Z,100882.08
2019-01-21T00:10:58.975Z,100882.38
2019-01-21T00:11:35.376Z,100880.48
2019-01-21T00:12:12.550Z,100884.25
2019-01-21T00:12:49.387Z,100880.47
2019-01-21T00:13:25.685Z,100882.59
2019-01-21T00:14:02.789Z,100884.20
2019-01-21T00:14:39.758Z,100883.64
2019-01-21T00:15:16.716Z,100886.86
2019-01-21T00:15:53.020Z,100887.39
2019-01-21T00:16:30.078Z,100886.82
2019-01-21T00:17:06.960Z,100893.00
2019-01-21T00:17:45.265Z,100892.20
2019-01-21T00:18:22.689Z,100893.26
2019-01-21T00:18:59.908Z,100896.51
2019-01-21T00:19:36.684Z,100897.27
2019-01-21T00:20:13.076Z,100894.30
2019-01-21T00:20:50.026Z,100901.55
2019-01-21T00:21:26.280Z,100898.02
2019-01-21T00:22:03.076Z,100904.19
2019-01-21T00:22:40.203Z,100903.91
2019-01-21T00:23:19.607Z,100906.33
2019-01-21T00:23:55.923Z,100905.50
2019-01-21T00:24:33.152Z,100911.41
2019-01-21T00:25:10.045Z,100907.91
2019-01-21T00:25:47.319Z,100897.92
2019-01-21T00:26:23.993Z,100907.63
2019-01-21T00:27:01.222Z,100898.71
2019-01-21T00:27:37.432Z,100898.97
2019-01-21T00:28:13.908Z,100906.24
2019-01-21T00:28:50.896Z,100905.95
2019-01-21T00:29:26.989Z,100904.06
2019-01-21T00:30:04.270Z,100905.95
2019-01-21T00:30:41.696Z,100905.39
2019-01-21T00:31:18.662Z,100906.16
2019-01-21T00:31:55.540Z,100912.38
2019-01-21T00:32:32.718Z,100907.50
2019-01-21T00:33:09.215Z,100910.71
2019-01-21T00:33:46.366Z,100915.02
2019-01-21T00:34:23.593Z,100912.84
2019-01-21T00:35:00.504Z,100912.84
2019-01-21T00:35:37.492Z,100910.41
2019-01-21T00:36:14.738Z,100907.13
2019-01-21T00:36:51.085Z,100910.06
2019-01-21T00:37:27.586Z,100910.06
2019-01-21T00:38:04.775Z,100908.95
2019-01-21T00:38:41.909Z,100917.30
2019-01-21T00:39:18.119Z,100925.66
2019-01-21T00:39:55.419Z,100925.66
2019-01-21T00:40:33.225Z,100922.13
2019-01-21T00:41:11.742Z,100924.80
2019-01-21T00:41:48.143Z,100919.72
2019-01-21T00:42:25.524Z,100930.98
2019-01-21T00:43:01.904Z,100930.98
2019-01-21T00:43:38.312Z,100931.76
2019-01-21T00:44:15.525Z,100930.92
2019-01-21T00:44:52.709Z,100927.65
2019-01-21T00:45:30.098Z,100929.52
2019-01-21T00:46:06.851Z,100931.67
2019-01-21T00:46:43.705Z,100936.53
2019-01-21T00:47:19.942Z,100941.30
2019-01-21T00:47:56.256Z,100941.30
2019-01-21T00:48:33.198Z,100943.10
2019-01-21T00:49:09.769Z,100943.10
2019-01-21T00:49:46.636Z,100931.53
2019-01-21T00:50:23.371Z,100943.59
2019-01-21T00:51:00.371Z,100939.79
2019-01-21T00:51:36.870Z,100943.01
2019-01-21T00:52:13.619Z,100944.81
2019-01-21T00:52:50.664Z,100951.27
2019-01-21T00:53:26.878Z,100939.15
2019-01-21T00:54:03.805Z,100939.15
2019-01-21T00:54:41.238Z,100940.70
2019-01-21T00:55:17.691Z,100949.02
2019-01-21T00:55:54.762Z,100946.83
2019-01-21T00:56:32.571Z,100951.40
2019-01-21T00:57:08.940Z,100948.41
2019-01-21T00:57:45.219Z,100940.30
2019-01-21T00:58:22.297Z,100950.75
2019-01-21T00:58:58.438Z,100950.49
2019-01-21T00:59:35.302Z,100945.09
2019-01-21T01:00:15.493Z,100945.09
2019-01-21T01:00:51.578Z,100949.14
2019-01-21T01:01:27.962Z,100949.14
2019-01-21T01:02:04.693Z,100947.72
2019-01-21T01:02:40.946Z,100954.47
2019-01-21T01:03:18.029Z,100954.47
2019-01-21T01:03:54.372Z,100960.86
2019-01-21T01:04:31.234Z,100960.86
2019-01-21T01:05:08.385Z,100953.30
2019-01-21T01:05:44.505Z,100957.87
2019-01-21T01:06:20.769Z,100961.78
2019-01-21T01:06:57.193Z,100961.78
2019-01-21T01:07:34.350Z,100962.00
2019-01-21T01:08:10.476Z,100966.55
2019-01-21T01:08:47.172Z,100965.16
2019-01-21T01:09:24.082Z,100972.40
2019-01-21T01:10:00.309Z,100972.40
2019-01-21T01:10:36.978Z,100958.37
2019-01-21T01:11:13.829Z,100962.25
2019-01-21T01:11:50.222Z,100965.38
2019-01-21T01:12:26.959Z,100970.20
2019-01-21T01:13:03.942Z,100968.34
2019-01-21T01:13:42.705Z,100968.34
2019-01-21T01:14:20.644Z,100975.54
2019-01-21T01:14:57.160Z,100976.25
2019-01-21T01:15:33.690Z,100976.25
2019-01-21T01:16:11.033Z,100978.15
2019-01-21T01:16:47.443Z,100973.80
2019-01-21T01:17:24.217Z,100973.80
2019-01-21T01:18:00.976Z,100982.45
2019-01-21T01:18:38.147Z,100982.45
2019-01-21T01:19:15.988Z,100970.83
2019-01-21T01:19:54.066Z,100970.50
2019-01-21T01:20:30.564Z,100970.50
2019-01-21T01:21:07.628Z,100979.84
2019-01-21T01:21:44.884Z,100978.44
2019-01-21T01:22:21.152Z,100974.94
2019-01-21T01:22:57.535Z,100980.47
2019-01-21T01:23:34.357Z,100980.47
2019-01-21T01:24:11.281Z,100981.48
2019-01-21T01:24:47.598Z,100972.61
2019-01-21T01:25:24.494Z,100972.61
2019-01-21T01:26:01.332Z,100976.23
2019-01-21T01:26:38.071Z,100976.23
2019-01-21T01:27:14.947Z,100988.27
2019-01-21T01:27:51.255Z,100986.58
2019-01-21T01:28:35.410Z,100989.48
2019-01-21T01:29:11.518Z,100996.44
2019-01-21T01:29:48.737Z,100990.94
2019-01-21T01:30:25.727Z,100993.80
2019-01-21T01:31:01.899Z,100997.52
2019-01-21T01:31:38.618Z,100996.06
2019-01-21T01:32:15.191Z,100996.30
2019-01-21T01:32:52.261Z,101000.81
2019-01-21T01:33:29.125Z,100991.84
2019-01-21T01:34:06.084Z,100999.36
2019-01-21T01:34:42.465Z,100996.05
2019-01-21T01:35:19.309Z,101000.32
2019-01-21T01:35:56.275Z,100994.95
2019-01-21T01:36:32.679Z,101005.28
2019-01-21T01:37:09.120Z,101002.63
2019-01-21T01:37:46.149Z,101002.08
2019-01-21T01:38:23.164Z,100995.20
2019-01-21T01:38:59.926Z,100996.81
2019-01-21T01:39:36.790Z,100997.56
2019-01-21T01:40:18.333Z,100997.27
2019-01-21T01:40:55.457Z,100999.95
2019-01-21T01:41:31.891Z,101001.78
2019-01-21T01:42:08.569Z,101004.70
2019-01-21T01:42:45.572Z,101003.23
2019-01-21T01:43:22.172Z,101002.94
2019-01-21T01:43:59.354Z,101003.44
2019-01-21T01:44:36.153Z,101009.91
2019-01-21T01:45:15.307Z,101007.20
2019-01-21T01:45:51.562Z,101005.84
2019-01-21T01:46:28.116Z,101006.45
2019-01-21T01:47:04.603Z,101007.50
2019-01-21T01:47:44.957Z,101010.77
2019-01-21T01:48:19.689Z,101014.28
2019-01-21T01:48:56.906Z,101011.56
2019-01-21T01:49:33.280Z,101010.27
2019-01-21T01:50:10.163Z,101009.46
2019-01-21T01:50:47.158Z,101008.41
2019-01-21T01:51:23.919Z,101008.45
2019-01-21T01:52:00.838Z,101016.03
2019-01-21T01:52:37.857Z,101012.58
2019-01-21T01:53:14.243Z,101011.82
2019-01-21T01:53:50.900Z,101016.53
2019-01-21T01:54:27.604Z,101016.87
2019-01-21T01:55:03.974Z,101018.83
2019-01-21T01:55:41.100Z,101020.53
2019-01-21T01:56:17.928Z,101014.87
2019-01-21T01:56:54.123Z,101016.22
2019-01-21T01:57:31.058Z,101013.52
2019-01-21T01:58:08.236Z,101017.33
2019-01-21T01:58:44.950Z,101016.47
2019-01-21T01:59:21.730Z,101012.16
2019-01-21T01:59:58.627Z,101013.72
2019-01-21T02:00:34.979Z,101015.82
2019-01-21T02:01:12.160Z,101019.34
2019-01-21T02:01:48.869Z,101010.11
2019-01-21T02:02:25.540Z,101017.63
2019-01-21T02:03:01.960Z,101021.70
2019-01-21T02:03:38.953Z,101018.13
2019-01-21T02:04:15.462Z,101022.45
2019-01-21T02:04:52.582Z,101026.24
2019-01-21T02:05:29.899Z,101025.46
2019-01-21T02:06:06.149Z,101026.01
2019-01-21T02:06:42.277Z,101021.95
2019-01-21T02:07:19.285Z,101020.30
2019-01-21T02:07:55.661Z,101018.73
2019-01-21T02:08:32.094Z,101018.73
2019-01-21T02:09:10.025Z,101022.55
2019-01-21T02:09:46.638Z,101019.73
2019-01-21T02:10:23.165Z,101022.98
2019-01-21T02:10:59.860Z,101025.42
2019-01-21T02:11:36.325Z,101022.91
2019-01-21T02:12:12.892Z,101027.28
2019-01-21T02:12:49.933Z,101016.45
2019-01-21T02:13:26.814Z,101016.89
2019-01-21T02:14:03.269Z,101023.86
2019-01-21T02:14:48.510Z,101020.05
2019-01-21T02:15:25.222Z,101016.19
2019-01-21T02:16:01.483Z,101018.29
2019-01-21T02:16:38.440Z,101017.79
2019-01-21T02:17:14.809Z,101012.56
2019-01-21T02:17:52.403Z,101025.30
2019-01-21T02:18:29.441Z,101019.82
2019-01-21T02:19:05.839Z,101024.49
2019-01-21T02:19:44.016Z,101019.32
2019-01-21T02:20:20.683Z,101018.52
2019-01-21T02:20:57.479Z,101023.89
2019-01-21T02:21:35.165Z,101025.30
2019-01-21T02:22:12.579Z,101021.73
2019-01-21T02:22:52.105Z,101025.14
2019-01-21T02:23:31.036Z,101025.64
2019-01-21T02:24:09.659Z,101025.28
2019-01-21T02:24:45.962Z,101026.39
2019-01-21T02:25:25.044Z,101024.53
2019-01-21T02:26:04.275Z,101019.72
2019-01-21T02:27:24.966Z,101022.88
2019-01-21T02:28:38.647Z,101021.96
2019-01-21T02:29:27.837Z,101027.81
2019-01-21T02:30:26.165Z,101037.44
2019-01-21T02:31:39.225Z,101033.29
2019-01-21T02:32:49.186Z,101027.62
2019-01-21T02:34:10.091Z,101031.44
2019-01-21T02:35:20.139Z,101035.50
2019-01-21T02:36:29.359Z,101037.05
2019-01-21T02:37:40.075Z,101037.30
2019-01-21T02:39:08.157Z,101043.78
2019-01-21T02:39:59.009Z,101032.48
2019-01-21T02:41:01.005Z,101032.27
2019-01-21T02:42:02.080Z,101040.70
2019-01-21T02:43:07.135Z,101043.89
2019-01-21T02:44:12.575Z,101043.28
2019-01-21T02:45:18.384Z,101044.53
2019-01-21T02:46:24.254Z,101037.91
2019-01-21T02:47:15.712Z,101032.48
2019-01-21T02:48:23.454Z,101034.70
2019-01-21T02:49:32.827Z,101036.11
2019-01-21T02:50:35.410Z,101033.59
2019-01-21T02:52:22.071Z,101033.84
2019-01-21T02:53:49.020Z,101037.00
2019-01-21T02:54:56.099Z,101032.06
2019-01-21T02:55:54.360Z,101045.33
2019-01-21T02:56:59.049Z,101038.34
2019-01-21T02:58:15.456Z,101042.06
2019-01-21T02:59:27.714Z,101039.70
2019-01-21T03:00:44.231Z,101044.95
2019-01-21T03:02:06.505Z,101045.50
2019-01-21T03:03:07.152Z,101036.75
2019-01-21T03:04:01.757Z,101045.57
2019-01-21T03:05:22.855Z,101047.92
2019-01-21T03:06:29.490Z,101045.75
2019-01-21T03:07:28.186Z,101038.84
2019-01-21T03:08:37.213Z,101041.01
2019-01-21T03:09:54.329Z,101039.16
2019-01-21T03:11:10.429Z,101041.87
2019-01-21T03:12:16.825Z,101038.69
2019-01-21T03:13:37.267Z,101035.83
2019-01-21T03:14:58.082Z,101034.41
2019-01-21T03:16:07.363Z,101032.25
2019-01-21T03:17:30.324Z,101028.62
2019-01-21T03:19:08.904Z,101030.72
2019-01-21T03:20:22.661Z,101034.11
2019-01-21T03:21:49.361Z,101032.12
2019-01-21T03:23:01.043Z,101025.72
2019-01-21T03:24:15.680Z,101022.98
2019-01-21T03:25:31.010Z,101029.52
2019-01-21T03:26:46.878Z,101023.78
2019-01-21T03:27:57.339Z,101029.28
2019-01-21T03:29:08.905Z,101022.39
2019-01-21T03:30:11.214Z,101028.55
2019-01-21T03:31:23.694Z,101025.10
2019-01-21T03:32:47.547Z,101025.98
2019-01-21T03:33:45.141Z,101023.44
2019-01-21T03:35:05.834Z,101029.05
2019-01-21T03:36:16.893Z,101025.95
2019-01-21T03:37:42.716Z,101015.05
2019-01-21T03:39:08.531Z,101014.66
2019-01-21T03:40:13.974Z,101016.44
2019-01-21T03:41:11.504Z,101015.35
2019-01-21T03:42:07.084Z,101015.16
2019-01-21T03:43:05.739Z,101013.41
2019-01-21T03:44:10.822Z,101007.86
2019-01-21T03:45:22.474Z,101010.43
2019-01-21T03:46:20.330Z,101006.43
2019-01-21T03:47:32.701Z,101000.23
2019-01-21T03:48:34.577Z,100999.77
2019-01-21T03:49:21.351Z,100999.30
2019-01-21T03:50:26.873Z,101000.50
2019-01-21T03:51:46.190Z,101006.14
2019-01-21T03:52:52.381Z,101005.70
2019-01-21T03:53:56.125Z,100993.74
2019-01-21T03:54:40.304Z,100997.02
2019-01-21T03:55:18.696Z,100992.14
2019-01-21T03:55:58.582Z,100994.86
2019-01-21T03:57:29.583Z,100992.63
2019-01-21T03:58:48.710Z,100990.54
2019-01-21T03:59:57.034Z,100989.42
2019-01-21T04:01:01.966Z,100993.50
2019-01-21T04:02:37.291Z,100995.38
2019-01-21T04:03:53.177Z,100982.66
2019-01-21T04:05:06.441Z,100982.48
2019-01-21T04:06:01.751Z,100978.23
2019-01-21T04:06:51.233Z,100976.73
2019-01-21T04:07:57.353Z,100980.41
2019-01-21T04:09:24.863Z,100982.58
2019-01-21T04:10:20.710Z,100970.42
2019-01-21T04:11:23.210Z,100978.30
2019-01-21T04:12:23.752Z,100976.37
2019-01-21T04:13:32.693Z,100979.34
2019-01-21T04:14:44.496Z,100973.58
2019-01-21T04:16:06.821Z,100974.54
2019-01-21T04:17:18.597Z,100976.62
2019-01-21T04:18:29.382Z,100963.36
2019-01-21T04:19:37.771Z,100965.95
2019-01-21T04:20:42.423Z,100964.19
2019-01-21T04:21:52.697Z,100960.50
2019-01-21T04:23:06.594Z,100952.09
2019-01-21T04:24:21.866Z,100957.54
2019-01-21T04:25:42.987Z,100951.22
2019-01-21T04:26:37.123Z,100946.09
2019-01-21T04:28:03.777Z,100945.92
2019-01-21T04:29:07.991Z,100944.90
2019-01-21T04:30:21.162Z,100945.61
2019-01-21T04:31:31.704Z,100951.69
2019-01-21T04:32:28.142Z,100948.16
2019-01-21T04:33:36.725Z,100949.44
2019-01-21T04:34:50.855Z,100952.55
2019-01-21T04:36:09.804Z,100947.34
2019-01-21T04:37:29.887Z,100944.77
2019-01-21T04:38:52.062Z,100943.98
2019-01-21T04:39:59.195Z,100937.44
2019-01-21T04:41:12.273Z,100939.86
2019-01-21T04:42:20.444Z,100930.48
2019-01-21T04:43:40.658Z,100931.61
2019-01-21T04:44:48.407Z,100923.34
2019-01-21T04:45:32.258Z,100926.88
2019-01-21T04:46:43.443Z,100924.95
2019-01-21T04:48:07.061Z,100924.86
2019-01-21T04:49:26.093Z,100916.45
2019-01-21T04:50:49.977Z,100921.89
2019-01-21T04:52:15.144Z,100916.45
2019-01-21T04:53:12.368Z,100922.70
2019-01-21T04:54:41.580Z,100917.90
2019-01-21T04:56:01.327Z,100911.89
2019-01-21T04:57:23.337Z,100907.16
2019-01-21T04:58:38.512Z,100910.59
2019-01-21T04:59:54.944Z,100911.30
2019-01-21T05:01:02.174Z,100904.66
2019-01-21T05:01:57.974Z,100906.35
2019-01-21T05:03:08.724Z,100908.33
2019-01-21T05:04:29.489Z,100909.05
2019-01-21T05:05:46.549Z,100900.78
2019-01-21T05:06:49.829Z,100902.79
2019-01-21T05:08:21.165Z,100903.91
2019-01-21T05:09:14.169Z,100904.54
2019-01-21T05:10:15.582Z,100899.42
2019-01-21T05:11:31.061Z,100895.75
2019-01-21T05:12:32.711Z,100891.81
2019-01-21T05:13:38.739Z,100897.97
2019-01-21T05:14:33.291Z,100901.90
2019-01-21T05:16:02.001Z,100900.82
2019-01-21T05:16:54.084Z,100897.16
2019-01-21T05:18:21.928Z,100894.06
2019-01-21T05:19:33.538Z,100891.34
2019-01-21T05:20:42.864Z,100892.54
2019-01-21T05:21:55.398Z,100883.30
2019-01-21T05:22:49.753Z,100882.45
2019-01-21T05:24:11.456Z,100885.41
2019-01-21T05:25:36.385Z,100877.71
2019-01-21T05:26:18.900Z,100874.52
2019-01-21T05:27:35.416Z,100874.66
2019-01-21T05:28:47.545Z,100874.56
2019-01-21T05:29:36.732Z,100870.11
2019-01-21T05:30:53.199Z,100868.83
2019-01-21T05:31:45.378Z,100869.25
2019-01-21T05:33:14.073Z,100864.51
2019-01-21T05:34:16.011Z,100862.02
2019-01-21T05:35:43.914Z,100858.50
2019-01-21T05:36:52.318Z,100855.67
2019-01-21T05:38:07.737Z,100864.51
2019-01-21T05:38:56.217Z,100854.97
2019-01-21T05:40:09.240Z,100853.84
2019-01-21T05:41:20.884Z,100853.42
2019-01-21T05:42:45.465Z,100851.66
2019-01-21T05:44:03.985Z,100848.05
2019-01-21T05:45:08.715Z,100847.31
2019-01-21T05:46:16.508Z,100841.56
2019-01-21T05:47:23.075Z,100842.59
2019-01-21T05:48:48.913Z,100837.41
2019-01-21T05:49:44.313Z,100841.16
2019-01-21T05:50:55.740Z,100843.39
2019-01-21T05:52:25.036Z,100834.41
2019-01-21T05:53:50.221Z,100837.77
2019-01-21T05:54:52.227Z,100832.98
2019-01-21T05:56:18.238Z,100828.28
2019-01-21T05:57:30.783Z,100829.70
2019-01-21T05:58:47.647Z,100826.15
2019-01-21T06:00:11.547Z,100827.46
2019-01-21T06:01:27.513Z,100821.55
2019-01-21T06:02:25.486Z,100825.54
2019-01-21T06:03:25.560Z,100820.19
2019-01-21T06:04:56.848Z,100818.64
2019-01-21T06:06:02.378Z,100813.52
2019-01-21T06:07:18.109Z,100808.68
2019-01-21T06:08:46.522Z,100810.89
2019-01-21T06:09:56.436Z,100811.92
2019-01-21T06:10:53.891Z,100807.13
2019-01-21T06:11:54.069Z,100801.68
2019-01-21T06:13:05.584Z,100803.28
2019-01-21T06:14:30.577Z,100803.28
2019-01-21T06:15:24.156Z,100804.50
2019-01-21T06:16:20.470Z,100800.04
2019-01-21T06:17:36.049Z,100795.95
2019-01-21T06:18:21.556Z,100795.06
2019-01-21T06:19:19.308Z,100806.66
2019-01-21T06:20:29.470Z,100803.05
2019-01-21T06:21:52.808Z,100795.58
2019-01-21T06:22:43.027Z,100796.55
2019-01-21T06:23:43.658Z,100796.94
2019-01-21T06:24:54.142Z,100792.62
2019-01-21T06:26:19.316Z,100791.91
2019-01-21T06:27:59.963Z,100791.44
2019-01-21T06:29:08.534Z,100791.35
2019-01-21T06:30:29.501Z,100790.13
2019-01-21T06:31:40.338Z,100789.16
2019-01-21T06:32:49.826Z,100785.64
2019-01-21T06:33:52.363Z,100787.57
2019-01-21T06:35:11.592Z,100787.00
2019-01-21T06:36:15.543Z,100781.12
2019-01-21T06:37:47.322Z,100778.17
2019-01-21T06:39:11.388Z,100773.09
2019-01-21T06:40:48.577Z,100769.57
2019-01-21T06:42:03.867Z,100770.03
2019-01-21T06:43:28.980Z,100762.86
2019-01-21T06:44:28.679Z,100763.56
2019-01-21T06:45:51.139Z,100757.73
2019-01-21T06:46:47.149Z,100752.48
2019-01-21T06:47:38.486Z,100756.01
2019-01-21T06:48:47.107Z,100747.73
2019-01-21T06:50:05.362Z,100759.53
2019-01-21T06:51:21.521Z,100745.27
2019-01-21T06:52:40.602Z,100746.73
2019-01-21T06:53:48.317Z,100743.78
2019-01-21T06:54:57.883Z,100743.91
2019-01-21T06:55:59.908Z,100741.75
2019-01-21T06:57:06.657Z,100732.22
2019-01-21T06:58:10.241Z,100729.59
2019-01-21T06:59:24.726Z,100729.45
2019-01-21T07:00:23.776Z,100726.07
2019-01-21T07:01:23.071Z,100720.39
2019-01-21T07:02:49.144Z,100724.02
2019-01-21T07:04:14.536Z,100718.37
2019-01-21T07:05:28.443Z,100712.45
2019-01-21T07:06:33.380Z,100709.16
2019-01-21T07:07:53.306Z,100704.65
2019-01-21T07:09:06.312Z,100707.05
2019-01-21T07:10:11.123Z,100699.59
2019-01-21T07:11:18.193Z,100699.83
2019-01-21T07:12:39.294Z,100699.59
2019-01-21T07:13:44.428Z,100704.05
2019-01-21T07:15:06.861Z,100702.32
2019-01-21T07:16:20.901Z,100693.52
2019-01-21T07:17:28.965Z,100690.20
2019-01-21T07:18:52.402Z,100692.72
2019-01-21T07:20:14.932Z,100691.66
2019-01-21T07:21:35.762Z,100692.22
2019-01-21T07:22:38.453Z,100684.18
2019-01-21T07:23:51.266Z,100680.77
2019-01-21T07:24:39.825Z,100670.77
2019-01-21T07:25:53.537Z,100675.48
2019-01-21T07:27:04.932Z,100674.84
2019-01-21T07:28:18.865Z,100668.67
2019-01-21T07:29:37.021Z,100665.55
2019-01-21T07:30:45.812Z,100666.84
2019-01-21T07:31:47.159Z,100657.75
2019-01-21T07:33:06.386Z,100655.36
2019-01-21T07:33:55.963Z,100656.59
2019-01-21T07:35:03.206Z,100650.01
2019-01-21T07:36:22.832Z,100653.42
2019-01-21T07:37:47.252Z,100648.21
2019-01-21T07:38:47.603Z,100648.58
2019-01-21T07:40:13.506Z,100646.70
2019-01-21T07:41:51.270Z,100645.81
2019-01-21T07:42:52.701Z,100645.81
2019-01-21T07:44:05.156Z,100638.20
2019-01-21T07:45:04.147Z,100638.94
2019-01-21T07:46:08.942Z,100643.83
2019-01-21T07:47:13.376Z,100637.91
2019-01-21T07:48:17.880Z,100631.66
2019-01-21T07:49:32.015Z,100637.17
2019-01-21T07:50:38.884Z,100643.55
2019-01-21T07:51:41.852Z,100631.75
2019-01-21T07:53:00.611Z,100639.69
2019-01-21T07:54:13.799Z,100629.12
2019-01-21T07:55:27.880Z,100633.31
2019-01-21T07:56:31.629Z,100630.83
2019-01-21T07:57:40.174Z,100631.28
2019-01-21T07:58:40.261Z,100627.20
2019-01-21T08:00:06.641Z,100617.08
2019-01-21T08:01:10.600Z,100628.53
2019-01-21T08:02:28.058Z,100618.28
2019-01-21T08:03:37.794Z,100623.27
2019-01-21T08:04:57.569Z,100613.73
2019-01-21T08:06:05.749Z,100615.55
2019-01-21T08:06:58.726Z,100619.41
2019-01-21T08:07:54.579Z,100622.00
2019-01-21T08:08:47.447Z,100615.53
2019-01-21T08:09:58.563Z,100618.48
2019-01-21T08:11:03.998Z,100614.86
2019-01-21T08:12:17.214Z,100615.33
2019-01-21T08:13:37.060Z,100615.71
2019-01-21T08:14:52.141Z,100616.74
2019-01-21T08:16:11.045Z,100609.03
2019-01-21T08:17:18.150Z,100609.13
2019-01-21T08:18:36.497Z,100608.80
2019-01-21T08:19:38.294Z,100610.83
2019-01-21T08:20:40.946Z,100605.84
2019-01-21T08:21:35.882Z,100608.57
2019-01-21T08:23:01.990Z,100608.12
2019-01-21T08:24:25.033Z,100604.50
2019-01-21T08:25:44.699Z,100602.24
2019-01-21T08:27:07.825Z,100603.14
2019-01-21T08:28:12.340Z,100600.98
2019-01-21T08:29:03.063Z,100588.50
2019-01-21T08:30:12.634Z,100591.78
2019-01-21T08:31:22.686Z,100591.55
2019-01-21T08:32:13.885Z,100588.60
2019-01-21T08:33:29.733Z,100589.50
2019-01-21T08:34:42.966Z,100590.14
2019-01-21T08:35:35.568Z,100592.05
2019-01-21T08:36:39.912Z,100583.08
2019-01-21T08:37:45.427Z,100591.02
2019-01-21T08:38:35.642Z,100585.34
2019-01-21T08:39:40.218Z,100586.70
2019-01-21T08:40:34.814Z,100586.23
2019-01-21T08:41:48.356Z,100589.42
2019-01-21T08:43:11.358Z,100586.70
2019-01-21T08:44:14.559Z,100589.86
2019-01-21T08:45:46.776Z,100583.72
2019-01-21T08:46:44.076Z,100582.60
2019-01-21T08:47:34.000Z,100584.30
2019-01-21T08:48:50.594Z,100581.80
2019-01-21T08:49:58.347Z,100579.84
2019-01-21T08:51:23.560Z,100581.20
2019-01-21T08:52:55.916Z,100581.43
2019-01-21T08:53:57.034Z,100577.98
2019-01-21T08:55:09.395Z,100587.02
2019-01-21T08:56:28.003Z,100581.01
2019-01-21T08:57:30.607Z,100582.01
2019-01-21T08:59:00.315Z,100584.73
2019-01-21T09:00:19.386Z,100583.14
2019-01-21T09:01:21.104Z,100585.63
2019-01-21T09:02:33.647Z,100580.19
2019-01-21T09:03:41.646Z,100584.03
2019-01-21T09:04:53.138Z,100590.28
2019-01-21T09:05:56.745Z,100597.75
2019-01-21T09:07:00.757Z,100594.89
2019-01-21T09:08:09.722Z,100596.02
2019-01-21T09:09:10.348Z,100591.70
2019-01-21T09:10:18.590Z,100597.81
2019-01-21T09:11:21.163Z,100593.50
2019-01-21T09:12:15.960Z,100592.20
2019-01-21T09:13:22.259Z,100587.98
2019-01-21T09:14:27.489Z,100594.52
2019-01-21T09:15:59.314Z,100592.45
2019-01-21T09:17:07.570Z,100596.50
2019-01-21T09:18:03.000Z,100589.86
2019-01-21T09:19:02.678Z,100591.38
2019-01-21T09:20:10.661Z,100586.37
2019-01-21T09:21:29.057Z,100594.77
2019-01-21T09:22:55.145Z,100594.06
2019-01-21T09:24:13.694Z,100596.08
2019-01-21T09:25:29.977Z,100597.44
2019-01-21T09:26:26.143Z,100588.97
2019-01-21T09:27:15.959Z,100594.50
2019-01-21T09:28:33.199Z,100589.34
2019-01-21T09:29:54.057Z,100590.61
2019-01-21T09:31:07.216Z,100594.59
2019-01-21T09:32:29.725Z,100590.17
2019-01-21T09:33:48.264Z,100596.47
2019-01-21T09:34:52.202Z,100597.78
2019-01-21T09:35:56.164Z,100596.57
2019-01-21T09:36:59.689Z,100591.31
2019-01-21T09:38:06.462Z,100598.20
2019-01-21T09:39:21.287Z,100595.24
2019-01-21T09:40:24.082Z,100596.98
2019-01-21T09:41:14.054Z,100590.84
2019-01-21T09:42:39.483Z,100592.28
2019-01-21T09:43:43.852Z,100590.45
2019-01-21T09:44:28.664Z,100591.58
2019-01-21T09:45:41.563Z,100587.44
2019-01-21T09:46:43.297Z,100594.47
2019-01-21T09:47:16.601Z,100590.25
2019-01-21T09:47:50.089Z,100587.61
2019-01-21T09:48:24.382Z,100599.34
2019-01-21T09:49:01.519Z,100593.11
2019-01-21T09:49:43.575Z,100596.70
2019-01-21T09:50:16.011Z,100592.30
2019-01-21T09:50:53.397Z,100597.50
2019-01-21T09:51:29.754Z,100590.00
2019-01-21T09:52:09.250Z,100594.31
2019-01-21T09:52:46.302Z,100589.91
2019-01-21T09:53:22.608Z,100597.83
2019-01-21T09:53:59.157Z,100595.84
2019-01-21T09:54:36.907Z,100598.32
2019-01-21T09:55:14.330Z,100590.17
2019-01-21T09:55:52.791Z,100594.89
2019-01-21T09:56:34.483Z,100597.13
2019-01-21T09:57:17.455Z,100593.62
2019-01-21T09:58:02.640Z,100595.12
2019-01-21T09:58:40.249Z,100590.81
2019-01-21T09:59:16.537Z,100588.10
2019-01-21T10:00:07.395Z,100598.48
2019-01-21T10:00:43.694Z,100594.66
2019-01-21T10:01:20.562Z,100592.55
2019-01-21T10:01:59.952Z,100591.94
2019-01-21T10:02:50.971Z,100588.58
2019-01-21T10:03:28.227Z,100588.58
2019-01-21T10:04:05.360Z,100584.73
2019-01-21T10:05:01.139Z,100595.84
2019-01-21T10:05:38.412Z,100584.41
2019-01-21T10:06:15.346Z,100581.22
2019-01-21T10:07:12.319Z,100583.94
2019-01-21T10:08:26.604Z,100583.47
2019-01-21T10:09:55.372Z,100590.16
2019-01-21T10:11:03.306Z,100592.81
2019-01-21T10:12:02.947Z,100589.92
2019-01-21T10:13:02.309Z,100592.92
2019-01-21T10:14:24.503Z,100596.52
2019-01-21T10:15:35.423Z,100594.69
2019-01-21T10:16:47.082Z,100607.15
2019-01-21T10:17:58.269Z,100596.93
2019-01-21T10:19:21.236Z,100603.72
2019-01-21T10:20:39.073Z,100605.96
2019-01-21T10:22:05.651Z,100605.24
2019-01-21T10:23:22.024Z,100598.86
2019-01-21T10:24:40.368Z,100602.22
2019-01-21T10:25:33.510Z,100599.63
2019-01-21T10:26:34.501Z,100599.55
2019-01-21T10:28:07.135Z,100606.10
2019-01-21T10:29:16.387Z,100607.38
2019-01-21T10:30:36.310Z,100610.49
2019-01-21T10:31:59.231Z,100613.84
2019-01-21T10:33:10.346Z,100617.41
2019-01-21T10:34:28.123Z,100620.63
2019-01-21T10:35:46.051Z,100622.03
2019-01-21T10:37:16.284Z,100619.92
2019-01-21T10:38:34.250Z,100620.56
2019-01-21T10:40:02.131Z,100621.75
2019-01-21T10:40:51.754Z,100624.95
2019-01-21T10:41:44.739Z,100625.66
2019-01-21T10:42:46.264Z,100629.56
2019-01-21T10:44:00.230Z,100625.42
2019-01-21T10:45:03.262Z,100634.13
2019-01-21T10:46:36.652Z,100632.28
2019-01-21T10:47:35.458Z,100632.84
2019-01-21T10:48:42.526Z,100636.98
2019-01-21T10:49:50.057Z,100641.97
2019-01-21T10:51:26.455Z,100643.64
2019-01-21T10:52:48.363Z,100640.45
2019-01-21T10:54:00.262Z,100643.55
2019-01-21T10:54:51.444Z,100646.50
2019-01-21T10:55:50.471Z,100637.40
2019-01-21T10:57:07.912Z,100643.31
2019-01-21T10:58:02.383Z,100642.58